Portada
METAR-TAF:

METAR-TAF

Aeroports :

Harry P. Williams Memorial Airport

Patterson, Louisiana, Estats Units d'Amèrica

latitud: 29-43N, longitud: 091-20W, altitud: 3 m

Observació

L'informe es va fer fa 42 minuts, a les 14:56 UTC
Vent 8 kt del Est/Nord-Est
Temperatura 28°C
Humitat 79%
Pressió 1018 hPa
Cel ennuvolat a una alçada de 1900 ft

METAR: KPTN 301456Z AUTO 06008KT BKN019 28/24 A3007 RMK AO2 SLP181 T02830239 50005 $

Hora: 10:38 (15:38 UTC)


TAF: manca

Observacions i pronòstics meteorològics de més de 4000 aeroports (METAR i TAF).

Les estacions disponibles són els punts grocs i vermells al mapa.

Posi el ratolí al punt desitjat per veure el nom de l'estació.

Feu clic per veure les observacions i els pronòstics meteorològics.

Per canviar el mapa: feu clic els botons verds amb una creu de color negre per apropar; al botó verd amb un guió per allunyar la imatge; o en les fletxes verdes per a mapes adjacents.


METAR-TAF: